San Antonio, Texas
Traffic Map
Current Weather Conditions
San Antonio, Texas
Broken Clouds
Broken Clouds
79°
Feels Like: 82°
Wind Chill: 79° Ceiling: 1800
Heat Index: 82° Visibility: 10mi
Dew Point: 73° Wind: 8mph
Humidity: 83% Direction: 160° (SSE)
Pressure: 29.94in Gusts: 0mph
Raw Report DataKSKF 010743Z AUTO 16007KT 10SM BKN018 26/23 A2994 RMK AO2 CIG 016V025 BKN V SCT $
Traffic Incident Summary
Active as of:
Severity:
Category:
InformationThere was an issue retrieving the traffic information for this location. Please try a different location or try again shortly.
Advertisements
Track Severe Weather on mobile